Time;durP1;ratioP1;P1;durP2;ratioP2;P2;SDS_P1;SDS_P2;PMS_P1;PMS_P2;Temp;Humidity;BMP_temperature;BMP_pressure;BME280_temperature;BME280_humidity;BME280_pressure;Samples;Min_cycle;Max_cycle;Signal;HPM_P1;HPM_P2
2021/08/20 00:01:49;;;;;;;64.20;11.25;;;;;;;24.76;49.47;101081.19;5032044;28;20030;-76
2021/08/20 00:04:14;;;;;;;74.88;11.70;;;;;;;24.72;49.60;101081.22;5031926;28;20036;-77
2021/08/20 00:06:40;;;;;;;70.90;9.18;;;;;;;24.75;49.35;101085.97;5032001;28;20018;-77
2021/08/20 00:09:06;;;;;;;41.83;8.27;;;;;;;24.70;49.71;101083.59;5031909;28;20443;-76
2021/08/20 00:11:32;;;;;;;41.78;8.10;;;;;;;24.75;49.70;101079.59;5031986;28;20065;-77
2021/08/20 00:13:57;;;;;;;56.47;7.97;;;;;;;24.69;49.87;101076.41;5031793;28;20603;-76
2021/08/20 00:16:23;;;;;;;37.65;7.32;;;;;;;24.73;49.45;101082.81;5031856;28;20026;-77
2021/08/20 00:18:49;;;;;;;49.97;7.85;;;;;;;24.76;49.67;101079.19;5031788;28;20017;-76
2021/08/20 00:21:14;;;;;;;57.88;7.60;;;;;;;24.78;49.48;101082.38;5031760;28;20388;-77
2021/08/20 00:23:40;;;;;;;44.40;6.82;;;;;;;24.79;49.53;101080.41;5031679;28;20033;-77
2021/08/20 00:26:06;;;;;;;60.42;8.48;;;;;;;24.82;49.85;101085.19;5031790;28;20104;-77
2021/08/20 00:28:31;;;;;;;58.58;10.90;;;;;;;24.84;49.93;101083.56;5031461;28;20084;-77
2021/08/20 00:30:59;;;;;;;65.72;7.88;;;;;;;24.87;49.47;101088.38;5031596;28;20033;-77
2021/08/20 00:33:24;;;;;;;54.88;7.82;;;;;;;24.84;49.68;101080.78;5031428;28;20024;-77
2021/08/20 00:35:50;;;;;;;81.00;7.85;;;;;;;24.80;49.81;101082.00;5030230;28;20108;-77
2021/08/20 00:38:15;;;;;;;39.05;7.38;;;;;;;24.79;49.66;101075.63;5031466;28;20025;-77
2021/08/20 00:40:42;;;;;;;35.10;6.43;;;;;;;24.80;49.98;101077.19;5031392;28;20055;-77
2021/08/20 00:43:08;;;;;;;65.97;7.78;;;;;;;24.73;50.25;101073.63;5031545;28;20034;-76
2021/08/20 00:45:34;;;;;;;84.75;10.45;;;;;;;24.76;50.18;101065.22;5031343;28;20581;-76
2021/08/20 00:48:00;;;;;;;52.03;9.27;;;;;;;24.86;49.63;101067.22;5031369;28;20029;-77
2021/08/20 00:50:26;;;;;;;78.85;10.57;;;;;;;24.86;49.67;101067.22;5031285;28;20145;-77
2021/08/20 00:52:52;;;;;;;84.28;12.65;;;;;;;24.91;49.80;101063.19;5031307;28;20049;-77
2021/08/20 00:55:19;;;;;;;97.78;10.85;;;;;;;24.96;49.84;101053.59;5031167;28;20037;-76
2021/08/20 00:57:48;;;;;;;99.97;11.98;;;;;;;24.87;49.92;101056.84;5031109;28;20104;-76
2021/08/20 01:00:16;;;;;;;78.85;9.68;;;;;;;24.87;49.81;101057.63;5031099;28;20379;-77
2021/08/20 01:02:41;;;;;;;91.45;10.57;;;;;;;24.75;50.17;101060.84;5031086;28;20557;-76
2021/08/20 01:05:09;;;;;;;66.03;10.40;;;;;;;24.83;50.22;101056.81;5031142;28;20109;-77
2021/08/20 01:07:37;;;;;;;105.05;13.20;;;;;;;24.70;50.61;101058.44;5031051;28;20032;-76
2021/08/20 01:10:07;;;;;;;44.05;11.63;;;;;;;24.74;50.52;101052.88;5030883;28;20059;-76
2021/08/20 01:12:35;;;;;;;81.70;9.07;;;;;;;25.08;49.39;101061.56;5030896;28;20121;-77
2021/08/20 01:15:01;;;;;;;59.15;8.80;;;;;;;24.98;49.89;101054.00;5030836;28;20038;-76
2021/08/20 01:17:26;;;;;;;65.07;9.80;;;;;;;24.91;49.98;101057.59;5030307;28;20081;-76
2021/08/20 01:19:52;;;;;;;58.45;10.57;;;;;;;25.02;49.55;101061.19;5030884;28;20030;-77
2021/08/20 01:22:17;;;;;;;47.53;8.40;;;;;;;25.00;49.86;101063.56;5030821;28;20026;-77
2021/08/20 01:24:46;;;;;;;41.95;9.60;;;;;;;24.86;50.37;101058.84;5030725;28;20037;-76
2021/08/20 01:27:13;;;;;;;40.65;7.88;;;;;;;24.89;50.33;101068.41;5030473;28;20029;-77
2021/08/20 01:29:40;;;;;;;45.20;7.85;;;;;;;24.90;49.98;101065.19;5030736;28;20051;-77
2021/08/20 01:32:06;;;;;;;44.13;7.60;;;;;;;24.86;50.51;101055.22;5030537;28;20691;-77
2021/08/20 01:34:32;;;;;;;36.70;7.15;;;;;;;24.92;49.85;101062.00;5030489;28;20025;-76
2021/08/20 01:36:57;;;;;;;40.50;7.00;;;;;;;24.93;50.16;101066.38;5030477;28;20028;-76
2021/08/20 01:39:23;;;;;;;38.42;6.78;;;;;;;24.94;49.72;101051.22;5030512;28;20026;-77
2021/08/20 01:41:48;;;;;;;27.15;8.10;;;;;;;24.91;49.79;101055.59;5030511;28;20026;-76
2021/08/20 01:44:14;;;;;;;32.63;6.35;;;;;;;24.79;50.24;101052.47;5030573;28;20029;-76
2021/08/20 01:46:40;;;;;;;32.50;6.43;;;;;;;24.69;50.73;101054.06;5030450;28;20028;-76
2021/08/20 01:49:07;;;;;;;37.53;5.93;;;;;;;24.69;50.61;101054.06;5029156;28;20033;-76
2021/08/20 01:51:33;;;;;;;40.97;7.50;;;;;;;24.68;50.45;101051.66;5030310;28;20053;-76
2021/08/20 01:54:02;;;;;;;25.25;6.28;;;;;;;24.68;50.55;101048.88;5029949;28;20407;-76
2021/08/20 01:56:30;;;;;;;40.83;6.72;;;;;;;24.64;51.13;101043.31;5030254;28;20487;-76
2021/08/20 01:58:57;;;;;;;47.47;6.78;;;;;;;24.72;50.55;101044.88;5030180;28;20033;-76
2021/08/20 02:01:25;;;;;;;27.38;7.82;;;;;;;24.76;50.62;101044.88;5030116;28;20079;-76
2021/08/20 02:03:51;;;;;;;19.55;5.68;;;;;;;24.76;50.24;101042.88;5030194;28;20032;-77
2021/08/20 02:06:17;;;;;;;13.82;4.68;;;;;;;24.72;50.74;101039.31;5030252;28;20109;-76
2021/08/20 02:08:43;;;;;;;30.17;6.28;;;;;;;24.73;50.78;101043.69;5030043;28;20104;-77
2021/08/20 02:11:08;;;;;;;25.48;6.72;;;;;;;24.75;50.34;101044.06;5030047;28;20036;-76
2021/08/20 02:13:34;;;;;;;37.40;8.25;;;;;;;24.72;50.48;101036.50;5029967;28;20070;-77
2021/08/20 02:16:00;;;;;;;25.98;6.05;;;;;;;24.82;50.40;101032.88;5029991;28;20025;-76
2021/08/20 02:18:26;;;;;;;25.95;6.22;;;;;;;24.80;50.21;101031.69;5029998;28;20022;-76
2021/08/20 02:20:51;;;;;;;31.27;5.35;;;;;;;24.78;50.74;101031.28;5029926;28;20379;-77
2021/08/20 02:23:17;;;;;;;13.43;5.45;;;;;;;24.86;50.51;101024.47;5029896;28;20028;-77
2021/08/20 02:25:42;;;;;;;19.17;4.57;;;;;;;24.89;50.39;101032.06;5029853;28;20379;-76
2021/08/20 02:28:08;;;;;;;23.38;5.85;;;;;;;24.88;50.41;101020.09;5028517;28;20045;-76
2021/08/20 02:30:34;;;;;;;26.23;5.57;;;;;;;24.88;50.03;101022.88;5029909;28;20120;-76
2021/08/20 02:33:00;;;;;;;16.48;6.43;;;;;;;24.87;50.04;101015.69;5029844;28;20030;-77
2021/08/20 02:35:26;;;;;;;11.20;4.80;;;;;;;24.79;49.93;101016.13;5029768;28;20074;-77
2021/08/20 02:37:54;;;;;;;13.95;4.22;;;;;;;24.70;50.25;100998.97;5029683;28;20025;-77
2021/08/20 02:40:20;;;;;;;29.15;5.80;;;;;;;24.53;50.33;101001.41;5029722;28;20061;-76
2021/08/20 02:42:46;;;;;;;14.13;4.63;;;;;;;24.67;50.19;101006.19;5029607;28;20097;-76
2021/08/20 02:45:13;;;;;;;10.63;4.03;;;;;;;24.71;50.04;101011.75;5029591;28;20488;-77
2021/08/20 02:47:39;;;;;;;13.75;4.07;;;;;;;24.52;50.55;101010.19;5029569;28;20030;-77
2021/08/20 02:50:06;;;;;;;21.08;4.85;;;;;;;24.41;50.79;101009.41;5029580;28;20407;-76
2021/08/20 02:52:31;;;;;;;25.48;4.80;;;;;;;24.31;51.12;101006.19;5029549;28;20033;-76
2021/08/20 02:54:57;;;;;;;40.03;6.95;;;;;;;24.44;51.01;101015.00;5027542;28;20059;-76
2021/08/20 02:57:27;;;;;;;25.05;4.90;;;;;;;24.45;50.91;101008.22;5011648;28;20121;-76
2021/08/20 02:59:52;;;;;;;;;;;;;;;24.40;50.98;101005.81;5010177;28;20033;-76
2021/08/20 03:02:18;;;;;;;15.25;4.03;;;;;;;24.45;50.71;101004.63;5009733;28;19920;-76
2021/08/20 03:04:43;;;;;;;12.60;4.05;;;;;;;24.39;51.19;101004.22;5009744;28;20034;-76
2021/08/20 03:07:10;;;;;;;12.27;4.28;;;;;;;24.43;50.89;100995.84;5009669;28;20053;-77
2021/08/20 03:09:35;;;;;;;11.65;4.30;;;;;;;24.43;50.82;100993.84;5009593;28;20101;-76
2021/08/20 03:12:01;;;;;;;30.15;6.05;;;;;;;24.50;50.73;100990.25;5009620;28;20117;-76
2021/08/20 03:14:26;;;;;;;12.05;4.22;;;;;;;24.51;50.26;100986.25;5009443;28;20066;-76
2021/08/20 03:16:52;;;;;;;8.00;4.47;;;;;;;24.49;50.48;100983.88;5009427;28;20391;-76
2021/08/20 03:19:17;;;;;;;16.63;5.18;;;;;;;24.50;50.53;100993.84;5009582;28;20069;-76
2021/08/20 03:21:43;;;;;;;11.63;5.07;;;;;;;24.46;50.45;100986.66;5009505;28;20030;-76
2021/08/20 03:24:09;;;;;;;15.15;4.97;;;;;;;24.51;50.48;100998.22;5009453;28;20560;-76
2021/08/20 03:26:34;;;;;;;17.27;4.78;;;;;;;24.53;50.18;100989.44;5009501;28;20034;-76
2021/08/20 03:29:01;;;;;;;22.25;5.85;;;;;;;24.53;50.37;100989.44;5009120;28;20086;-76
2021/08/20 03:31:26;;;;;;;27.58;6.25;;;;;;;24.52;50.30;100993.44;5009293;28;20061;-76
2021/08/20 03:33:54;;;;;;;21.13;6.32;;;;;;;24.54;50.39;100979.84;5009308;28;20457;-76
2021/08/20 03:36:21;;;;;;;17.85;5.82;;;;;;;24.59;50.59;100979.47;5009357;28;20026;-78
2021/08/20 03:38:47;;;;;;;30.33;6.68;;;;;;;24.54;50.25;100972.28;5009411;28;20022;-76
2021/08/20 03:41:12;;;;;;;23.00;6.32;;;;;;;24.59;50.17;100976.66;5012664;28;20037;-76
2021/08/20 03:43:38;;;;;;;20.08;6.22;;;;;;;24.58;50.38;100983.44;5012651;28;20059;-76
2021/08/20 03:46:06;;;;;;;21.20;6.40;;;;;;;24.61;50.11;100977.84;5012375;28;20030;-76
2021/08/20 03:48:33;;;;;;;26.63;6.95;;;;;;;24.60;50.34;100973.47;5012152;28;20049;-76
2021/08/20 03:50:59;;;;;;;23.98;6.70;;;;;;;24.63;50.10;100980.22;5012641;28;20033;-76
2021/08/20 03:53:24;;;;;;;18.38;6.50;;;;;;;24.56;50.43;100958.72;5012474;28;20022;-76
2021/08/20 03:55:50;;;;;;;17.23;6.35;;;;;;;24.61;50.32;100968.66;5012410;28;20030;-76
2021/08/20 03:58:16;;;;;;;35.88;7.13;;;;;;;24.59;50.49;100969.06;5012473;28;20030;-77
2021/08/20 04:00:45;;;;;;;16.23;5.88;;;;;;;24.62;50.20;100978.63;5012378;28;20029;-76
2021/08/20 04:03:11;;;;;;;23.63;6.97;;;;;;;24.64;50.41;100976.25;5012422;28;20025;-76
2021/08/20 04:05:36;;;;;;;21.58;6.03;;;;;;;24.65;50.51;100971.47;5012323;28;20041;-76
2021/08/20 04:08:02;;;;;;;17.13;6.70;;;;;;;24.63;50.28;100975.44;5012349;28;20109;-77
2021/08/20 04:10:27;;;;;;;14.52;5.90;;;;;;;24.63;50.46;100989.41;5012192;28;20053;-76
2021/08/20 04:12:53;;;;;;;25.75;6.28;;;;;;;24.68;50.47;100984.63;5012163;28;20087;-76
2021/08/20 04:15:18;;;;;;;12.50;5.78;;;;;;;24.67;50.43;100972.66;5012100;28;20083;-77
2021/08/20 04:17:44;;;;;;;9.25;5.03;;;;;;;24.66;50.14;100967.47;5012150;28;20026;-76
2021/08/20 04:20:10;;;;;;;13.85;6.93;;;;;;;24.61;50.17;100975.06;5012256;28;20388;-77
2021/08/20 04:22:36;;;;;;;16.10;5.88;;;;;;;24.58;50.38;100975.06;5012037;28;20472;-77
2021/08/20 04:25:02;;;;;;;13.50;6.60;;;;;;;24.59;50.19;100971.06;5012087;28;20033;-76
2021/08/20 04:27:29;;;;;;;23.50;6.32;;;;;;;24.57;50.60;100973.47;5011776;28;20071;-76
2021/08/20 04:29:54;;;;;;;13.10;6.05;;;;;;;24.50;50.41;100973.50;5012154;28;20030;-76
2021/08/20 04:32:20;;;;;;;11.68;5.13;;;;;;;24.52;50.55;100968.28;5011991;28;20113;-76
2021/08/20 04:34:46;;;;;;;16.67;6.50;;;;;;;24.51;50.35;100966.72;5011897;28;20029;-75
2021/08/20 04:37:11;;;;;;;9.77;6.07;;;;;;;24.45;50.58;100960.72;5011848;28;20034;-76
2021/08/20 04:39:37;;;;;;;23.92;5.85;;;;;;;24.57;50.06;100957.53;5012111;28;20056;-77
2021/08/20 04:42:03;;;;;;;22.83;6.28;;;;;;;24.48;50.40;100971.09;5011853;28;20034;-77
2021/08/20 04:44:28;;;;;;;23.98;6.63;;;;;;;24.49;50.15;100966.31;5011668;28;20057;-76
2021/08/20 04:46:54;;;;;;;18.35;6.40;;;;;;;24.41;50.67;100962.75;5011794;28;20058;-77
2021/08/20 04:49:19;;;;;;;35.50;6.43;;;;;;;24.43;50.71;100956.75;5011692;28;20400;-76
2021/08/20 04:51:45;;;;;;;38.95;7.03;;;;;;;24.49;50.25;100957.94;5010714;28;20026;-76
2021/08/20 04:54:11;;;;;;;16.45;5.07;;;;;;;24.55;49.93;100959.91;5011544;28;20030;-77
2021/08/20 04:56:37;;;;;;;8.07;4.72;;;;;;;24.40;50.41;100968.72;5011513;28;20033;-76
2021/08/20 04:59:02;;;;;;;11.00;5.32;;;;;;;24.53;50.28;100973.47;5011259;28;20507;-76
2021/08/20 05:01:28;;;;;;;28.73;5.68;;;;;;;24.46;50.50;100967.91;5011453;28;20061;-93
2021/08/20 05:03:54;;;;;;;27.42;6.60;;;;;;;24.45;50.32;100973.91;5011508;28;20026;-76
2021/08/20 05:06:20;;;;;;;31.08;7.45;;;;;;;24.54;50.36;100975.06;5011401;28;20034;-77
2021/08/20 05:08:45;;;;;;;23.45;7.00;;;;;;;24.54;50.32;100977.06;5011324;28;20604;-77
2021/08/20 05:11:11;;;;;;;18.27;6.07;;;;;;;24.49;50.40;100983.88;5011336;28;20032;-77
2021/08/20 05:13:37;;;;;;;18.15;7.05;;;;;;;24.46;50.49;100973.50;5011108;28;20026;-77
2021/08/20 05:16:03;;;;;;;26.00;8.30;;;;;;;24.41;50.80;100976.72;5011231;28;20065;-76
2021/08/20 05:18:28;;;;;;;24.70;7.32;;;;;;;24.46;50.76;100979.06;5010003;28;20041;-76
2021/08/20 05:20:54;;;;;;;25.85;7.47;;;;;;;24.51;50.43;100973.09;5011009;28;20029;-76
2021/08/20 05:23:19;;;;;;;22.73;9.38;;;;;;;24.48;50.51;100978.66;5010878;28;20034;-76
2021/08/20 05:25:45;;;;;;;25.05;7.15;;;;;;;24.49;50.53;100967.13;5009802;28;20033;-76
2021/08/20 05:28:12;;;;;;;23.88;8.55;;;;;;;24.47;50.51;100977.88;5010743;28;20046;-76
2021/08/20 05:30:39;;;;;;;34.22;8.73;;;;;;;24.46;50.31;100979.06;5011027;28;20461;-76
2021/08/20 05:33:05;;;;;;;21.70;7.47;;;;;;;24.47;50.43;100979.88;5010986;28;20468;-76
2021/08/20 05:35:31;;;;;;;23.95;7.18;;;;;;;24.51;50.49;100987.06;5010941;28;20037;-76
2021/08/20 05:37:57;;;;;;;22.17;7.60;;;;;;;24.52;50.65;100982.25;5010881;28;20393;-76
2021/08/20 05:40:22;;;;;;;17.60;7.00;;;;;;;24.54;50.33;100991.03;5009397;28;20030;-76
2021/08/20 05:42:48;;;;;;;16.02;6.05;;;;;;;24.60;50.21;100986.63;5010832;28;20041;-76
2021/08/20 05:45:14;;;;;;;19.35;7.20;;;;;;;24.51;50.77;100987.06;5010630;28;20034;-75
2021/08/20 05:47:40;;;;;;;22.83;7.47;;;;;;;24.59;50.18;100983.03;5010635;28;20052;-76
2021/08/20 05:50:07;;;;;;;30.00;8.77;;;;;;;24.48;50.86;100981.47;5009436;28;20034;-75
2021/08/20 05:52:38;;;;;;;19.48;8.05;;;;;;;24.47;50.73;100980.66;5010591;28;20029;-76
2021/08/20 05:55:06;;;;;;;30.48;9.80;;;;;;;24.55;50.48;100981.44;5010555;28;20044;-76
2021/08/20 05:57:31;;;;;;;19.95;8.50;;;;;;;24.53;50.39;100976.28;5010679;28;20026;-76
2021/08/20 05:59:57;;;;;;;18.13;8.85;;;;;;;24.61;50.42;100974.25;5010617;28;20502;-76
2021/08/20 06:02:22;;;;;;;21.33;8.27;;;;;;;24.61;50.24;100985.44;5010320;28;20030;-76
2021/08/20 06:04:48;;;;;;;28.20;8.43;;;;;;;24.56;50.84;100986.66;5010388;28;20415;-76
2021/08/20 06:07:14;;;;;;;17.83;8.10;;;;;;;24.62;50.57;100979.44;5010480;28;20044;-76
2021/08/20 06:09:40;;;;;;;18.50;8.27;;;;;;;24.67;50.41;100981.03;5010561;28;20085;-76
2021/08/20 06:12:06;;;;;;;15.45;7.72;;;;;;;24.68;50.16;100971.44;5010491;28;20102;-76
2021/08/20 06:14:33;;;;;;;18.92;7.65;;;;;;;24.63;50.56;100983.81;5010325;28;20101;-76
2021/08/20 06:16:58;;;;;;;15.07;7.47;;;;;;;24.64;50.45;100979.06;5009337;28;20041;-76
2021/08/20 06:19:25;;;;;;;18.15;7.55;;;;;;;24.45;50.94;100974.69;5010391;28;20380;-76
2021/08/20 06:21:51;;;;;;;17.92;8.20;;;;;;;24.58;50.86;100972.28;5010234;28;20036;-75
2021/08/20 06:24:17;;;;;;;12.90;6.90;;;;;;;24.69;50.36;100961.84;5010292;28;20469;-75
2021/08/20 06:26:46;;;;;;;16.80;7.03;;;;;;;24.81;49.99;100967.00;5010194;28;20033;-76
2021/08/20 06:29:13;;;;;;;11.75;6.53;;;;;;;24.63;50.67;100971.84;5010231;28;20073;-76
2021/08/20 06:31:38;;;;;;;18.55;8.25;;;;;;;24.61;50.58;100974.25;5008492;28;20396;-77
2021/08/20 06:34:04;;;;;;;14.45;7.00;;;;;;;24.72;50.40;100965.84;5009751;28;20033;-76
2021/08/20 06:36:29;;;;;;;9.52;5.03;;;;;;;24.68;50.70;100981.81;5010063;28;20102;-76
2021/08/20 06:38:55;;;;;;;11.30;4.70;;;;;;;24.77;50.71;100971.81;5010067;28;20033;-76
2021/08/20 06:41:21;;;;;;;13.05;6.07;;;;;;;24.85;50.54;100978.97;5009904;28;20057;-77
2021/08/20 06:43:46;;;;;;;10.95;6.43;;;;;;;25.01;50.29;100978.50;5010057;28;20034;-76
2021/08/20 06:46:12;;;;;;;10.50;5.93;;;;;;;25.03;50.33;100978.09;5009884;28;20057;-76
2021/08/20 06:48:37;;;;;;;10.35;5.80;;;;;;;25.05;50.39;100978.53;5010063;28;20057;-77
2021/08/20 06:51:03;;;;;;;11.18;5.97;;;;;;;25.07;50.19;100982.50;5009867;28;20026;-77
2021/08/20 06:53:28;;;;;;;11.48;6.22;;;;;;;25.20;50.01;100976.47;5009719;28;20529;-77
2021/08/20 06:55:54;;;;;;;12.43;6.70;;;;;;;25.18;50.00;100971.28;5009827;28;20048;-76
2021/08/20 06:58:19;;;;;;;12.38;6.63;;;;;;;24.90;50.80;100975.75;5009937;28;20033;-77
2021/08/20 07:00:45;;;;;;;18.30;7.47;;;;;;;24.74;51.01;100978.22;5009728;28;20381;-77
2021/08/20 07:03:10;;;;;;;18.85;9.00;;;;;;;25.04;50.09;100963.75;5009621;28;20057;-76
2021/08/20 07:05:36;;;;;;;10.77;6.45;;;;;;;25.03;50.47;100972.53;5009746;28;20065;-77
2021/08/20 07:08:05;;;;;;;10.98;6.40;;;;;;;24.91;50.88;100976.56;5009695;28;20405;-77
2021/08/20 07:10:31;;;;;;;13.10;6.43;;;;;;;25.11;50.22;100963.72;5009788;28;20036;-76
2021/08/20 07:12:57;;;;;;;11.90;5.95;;;;;;;25.24;49.73;100969.66;5009641;28;20109;-77
2021/08/20 07:15:22;;;;;;;10.40;6.28;;;;;;;25.23;49.71;100972.84;5011835;28;20113;-76
2021/08/20 07:17:48;;;;;;;9.60;5.80;;;;;;;25.33;49.84;100966.41;5026967;28;20026;-84
2021/08/20 07:20:16;;;;;;;8.45;5.57;;;;;;;25.35;49.73;100967.59;5032465;28;20029;-77
2021/08/20 07:22:42;;;;;;;11.25;7.05;;;;;;;25.22;50.23;100968.44;5032021;28;20037;-76
2021/08/20 07:25:08;;;;;;;11.52;6.40;;;;;;;25.25;50.15;100967.66;5031923;28;20029;-76
2021/08/20 07:27:33;;;;;;;11.90;6.28;;;;;;;25.19;50.24;100970.06;5034175;28;20091;-88
2021/08/20 07:29:59;;;;;;;15.93;6.72;;;;;;;25.19;50.38;100970.06;5036557;28;20022;-76
2021/08/20 07:32:24;;;;;;;13.60;7.13;;;;;;;25.15;50.73;100966.47;5034640;28;20375;-76
2021/08/20 07:34:50;;;;;;;15.52;8.18;;;;;;;25.00;51.43;100967.72;5032392;28;20038;-78
2021/08/20 07:37:15;;;;;;;11.98;7.50;;;;;;;24.98;51.46;100965.34;5032899;28;20104;-76
2021/08/20 07:39:41;;;;;;;12.63;6.40;;;;;;;25.19;50.68;100964.47;5032670;28;20515;-75
2021/08/20 07:42:07;;;;;;;9.63;6.57;;;;;;;25.16;50.82;100970.88;5031804;28;20037;-75
2021/08/20 07:44:33;;;;;;;14.48;8.15;;;;;;;25.12;51.20;100967.31;5028650;28;20025;-76
2021/08/20 07:46:59;;;;;;;17.48;9.32;;;;;;;25.21;51.15;100978.84;5032251;28;20375;-76
2021/08/20 07:49:24;;;;;;;14.23;8.80;;;;;;;25.17;51.34;100964.09;5031016;28;20035;-76
2021/08/20 07:51:50;;;;;;;19.05;7.40;;;;;;;25.16;51.11;100974.50;5031392;28;20026;-75
2021/08/20 07:54:16;;;;;;;15.38;8.18;;;;;;;25.22;51.29;100977.63;5033086;28;20388;-73
2021/08/20 07:56:41;;;;;;;10.48;7.43;;;;;;;25.35;50.56;100975.19;5032325;28;20067;-73
2021/08/20 07:59:07;;;;;;;15.15;9.77;;;;;;;25.44;50.41;100975.50;5017557;28;20031;-82
2021/08/20 08:01:33;;;;;;;12.40;8.63;;;;;;;25.29;50.83;100979.59;5015317;28;20789;-73
2021/08/20 08:03:58;;;;;;;11.52;8.05;;;;;;;25.24;51.31;100980.84;5016128;28;20112;-73
2021/08/20 08:06:25;;;;;;;14.65;9.52;;;;;;;25.27;51.05;100982.81;5015675;28;20045;-73
2021/08/20 08:08:51;;;;;;;13.40;8.00;;;;;;;25.39;50.75;100993.53;5014516;28;20097;-74
2021/08/20 08:11:17;;;;;;;11.55;7.43;;;;;;;25.40;50.71;101000.72;5015487;28;21298;-74
2021/08/20 08:13:43;;;;;;;13.23;8.30;;;;;;;25.39;50.57;101003.91;5022196;28;20396;-73
2021/08/20 08:16:09;;;;;;;12.18;7.80;;;;;;;25.28;50.56;100989.19;5032063;28;20025;-90
2021/08/20 08:18:34;;;;;;;18.52;9.88;;;;;;;25.39;50.24;100996.34;5032441;28;20025;-92
2021/08/20 08:21:00;;;;;;;14.75;9.32;;;;;;;25.39;50.70;100989.91;5031017;28;20105;-73
2021/08/20 08:23:26;;;;;;;16.73;9.32;;;;;;;25.33;50.79;100991.56;5031662;28;20429;-73
2021/08/20 08:25:51;;;;;;;11.73;8.73;;;;;;;25.54;50.54;100988.63;5029193;28;20032;-73
2021/08/20 08:28:19;;;;;;;16.75;9.13;;;;;;;25.70;50.00;100976.97;5030480;28;20106;-73
2021/08/20 08:30:48;;;;;;;14.30;9.13;;;;;;;25.56;50.42;100977.06;5031757;28;20022;-73
2021/08/20 08:33:14;;;;;;;14.10;8.88;;;;;;;25.79;49.96;100985.72;5031914;28;20057;-72
2021/08/20 08:35:40;;;;;;;13.18;8.80;;;;;;;25.68;50.47;100971.75;5018243;28;20038;-73
2021/08/20 08:38:09;;;;;;;15.23;10.13;;;;;;;25.66;50.35;100981.75;5015019;28;20030;-72
2021/08/20 08:40:36;;;;;;;13.37;9.07;;;;;;;25.78;49.92;100989.72;5014984;28;20025;-73
2021/08/20 08:43:04;;;;;;;17.00;10.43;;;;;;;25.76;49.89;100989.31;5014825;28;20040;-74
2021/08/20 08:45:30;;;;;;;18.25;11.38;;;;;;;25.57;50.63;100985.03;5014867;28;20063;-81
2021/08/20 08:47:56;;;;;;;16.02;10.43;;;;;;;25.77;50.41;100985.34;5015029;28;20426;-77
2021/08/20 08:50:23;;;;;;;15.63;10.57;;;;;;;25.81;50.22;100982.50;5013630;28;20037;-71
2021/08/20 08:52:49;;;;;;;17.95;10.10;;;;;;;25.84;50.29;100981.66;5015871;28;20137;-74
2021/08/20 08:55:14;;;;;;;19.65;11.35;;;;;;;25.93;50.33;100982.00;5014633;28;20528;-77
2021/08/20 08:57:40;;;;;;;17.77;11.60;;;;;;;26.02;50.41;100987.91;5014316;28;20053;-75
2021/08/20 09:00:07;;;;;;;16.67;11.02;;;;;;;25.98;50.66;100982.34;5017905;28;20044;-76
2021/08/20 09:02:34;;;;;;;19.38;11.15;;;;;;;26.08;50.96;100986.28;5024564;28;20082;-83
2021/08/20 09:05:02;;;;;;;18.55;11.75;;;;;;;26.19;51.24;100995.38;5033833;28;20670;-76
2021/08/20 09:07:29;;;;;;;17.48;11.45;;;;;;;26.12;51.72;100998.22;5031074;28;20392;-75
2021/08/20 09:10:11;;;;;;;15.55;11.38;;;;;;;26.12;52.08;100991.84;5031218;28;20034;-81
2021/08/20 09:12:40;;;;;;;19.40;11.13;;;;;;;26.31;51.40;100999.66;5026888;28;20052;-95
2021/08/20 09:15:06;;;;;;;17.92;11.32;;;;;;;26.19;51.77;100997.38;5029680;28;20414;-91
2021/08/20 09:17:33;;;;;;;21.48;12.90;;;;;;;26.46;51.31;100986.34;5028649;28;20038;-88
2021/08/20 09:20:16;;;;;;;17.70;12.02;;;;;;;26.53;51.97;101000.28;5027426;28;20036;-85
2021/08/20 09:22:42;;;;;;;20.05;11.27;;;;;;;26.65;51.83;100998.94;5023529;28;20034;-87
2021/08/20 09:25:27;;;;;;;17.58;11.05;;;;;;;26.67;52.13;100994.50;5029444;28;20093;-85
2021/08/20 09:28:14;;;;;;;16.40;10.90;;;;;;;26.82;52.16;100990.31;5018567;28;20527;-84
2021/08/20 09:31:04;;;;;;;12.43;8.27;;;;;;;26.99;51.45;100987.75;5027200;28;20021;-87
2021/08/20 09:33:48;;;;;;;16.73;9.93;;;;;;;27.05;51.05;100986.91;5025230;28;20067;-88
2021/08/20 09:36:22;;;;;;;15.50;8.68;;;;;;;26.98;51.53;100988.94;5058090;28;20092;-76
2021/08/20 09:38:57;;;;;;;14.13;8.52;;;;;;;26.85;52.13;100982.31;5025524;28;20048;-88
2021/08/20 09:41:33;;;;;;;10.95;7.15;;;;;;;26.97;51.86;100978.94;5024759;28;20065;-88
2021/08/20 09:44:03;;;;;;;10.15;6.63;;;;;;;27.02;51.90;100982.09;5027404;28;20052;-88
2021/08/20 09:46:52;;;;;;;;;;;;;;;27.16;51.85;100983.94;5027900;28;20037;-92
2021/08/20 09:49:17;;;;;;;8.57;6.50;;;;;;;27.18;51.84;100984.31;5027146;28;19917;-79
2021/08/20 09:51:50;;;;;;;12.25;7.18;;;;;;;27.33;51.58;100991.31;5027962;28;20471;-87
2021/08/20 09:54:22;;;;;;;8.25;6.25;;;;;;;27.35;51.91;100990.88;5011744;28;20049;-73
2021/08/20 09:56:48;;;;;;;13.20;6.72;;;;;;;27.32;52.22;100988.94;5010074;28;20628;-79
2021/08/20 09:59:15;;;;;;;21.63;14.98;;;;;;;27.51;51.27;100987.47;5012845;28;20081;-87
2021/08/20 10:01:45;;;;;;;17.05;11.82;;;;;;;27.34;51.49;100986.50;5011173;28;20037;-72
2021/08/20 10:04:16;;;;;;;15.07;7.85;;;;;;;27.38;51.71;100984.44;5011743;28;20116;-77
2021/08/20 10:06:43;;;;;;;13.48;7.55;;;;;;;27.62;51.09;100982.50;5013827;28;20018;-77
2021/08/20 10:09:11;;;;;;;17.75;8.85;;;;;;;27.86;50.40;100983.34;5016788;28;20112;-84
2021/08/20 10:11:41;;;;;;;12.82;8.05;;;;;;;27.91;50.42;100988.47;5013785;28;20051;-76
2021/08/20 10:14:08;;;;;;;16.38;12.57;;;;;;;27.99;50.20;100975.13;5012513;28;20498;-76
2021/08/20 10:16:36;;;;;;;11.63;6.88;;;;;;;27.92;50.36;100973.22;5011370;28;20056;-77
2021/08/20 10:19:05;;;;;;;18.85;8.50;;;;;;;28.08;49.73;100980.97;5019391;28;20025;-76
2021/08/20 10:21:32;;;;;;;21.80;9.27;;;;;;;28.11;49.79;100980.94;5015045;28;21151;-75
2021/08/20 10:24:00;;;;;;;16.48;8.05;;;;;;;28.21;49.61;100979.16;5011081;28;20530;-79
2021/08/20 10:26:27;;;;;;;18.33;9.18;;;;;;;28.16;49.70;100974.81;5011682;28;20117;-79
2021/08/20 10:28:54;;;;;;;17.48;10.70;;;;;;;28.06;50.03;100972.97;5010439;28;20053;-76
2021/08/20 10:31:21;;;;;;;15.85;11.25;;;;;;;28.04;49.84;100972.63;5010636;28;20051;-76
2021/08/20 10:33:47;;;;;;;16.85;12.00;;;;;;;28.02;49.73;100977.06;5011158;28;20037;-75
2021/08/20 10:36:13;;;;;;;19.95;13.55;;;;;;;28.13;49.24;100972.88;5013680;28;21164;-75
2021/08/20 10:38:39;;;;;;;13.73;10.23;;;;;;;28.29;48.80;100971.38;5012186;28;20025;-74
2021/08/20 10:41:21;;;;;;;12.43;5.63;;;;;;;28.33;48.59;100972.13;5013654;28;20030;-86
2021/08/20 10:44:15;;;;;;;13.40;5.35;;;;;;;28.37;49.12;100965.22;5011570;28;20104;-74
2021/08/20 10:46:42;;;;;;;13.23;8.80;;;;;;;28.69;48.51;100970.22;5011614;28;20034;-76
2021/08/20 10:49:11;;;;;;;10.98;6.88;;;;;;;28.38;49.19;100969.63;5011068;28;20026;-75
2021/08/20 10:51:56;;;;;;;16.50;7.30;;;;;;;28.69;47.75;100961.78;5012319;28;20569;-75
2021/08/20 10:54:31;;;;;;;19.75;13.27;;;;;;;28.72;48.40;100962.97;5012359;28;20048;-75
2021/08/20 10:56:57;;;;;;;13.45;5.43;;;;;;;28.88;47.85;100963.03;5012888;28;20021;-75
2021/08/20 10:59:35;;;;;;;25.20;6.78;;;;;;;28.89;48.33;100958.97;5027591;28;20075;-74
2021/08/20 11:02:19;;;;;;;16.40;5.47;;;;;;;29.28;47.56;100955.34;5027782;28;20021;-75
2021/08/20 11:05:05;;;;;;;12.15;3.72;;;;;;;29.39;46.28;100951.47;5027745;28;20029;-74
2021/08/20 11:07:36;;;;;;;13.52;4.90;;;;;;;29.56;46.25;100959.56;5028942;28;20029;-75
2021/08/20 11:10:08;;;;;;;8.30;3.20;;;;;;;29.70;46.15;100955.59;5028734;28;20025;-75
2021/08/20 11:12:43;;;;;;;4.88;2.47;;;;;;;29.74;46.13;100961.94;5029784;28;20021;-75
2021/08/20 11:15:20;;;;;;;9.90;3.25;;;;;;;29.95;45.46;100954.97;5027729;28;20395;-78
2021/08/20 11:18:05;;;;;;;7.80;2.83;;;;;;;30.08;44.53;100957.88;5027321;28;20490;-76